Terminal Aerodrome Forecast
Issued by NWS Missoula, MT

Home | Current Version | Previous Version | Text Only | Print | Product List | Glossary On
Versions: 1 2 3 4 5 6 7 8 9 10 11 12 13 14 15 16
000
FTUS45 KMSO 301931 AAB
TAFMSO
TAF AMD
KMSO 301931Z 3020/3118 32014G18KT P6SM FEW060
     FM302100 29013G21KT P6SM BKN070
     FM310200 34007KT P6SM SCT070 BKN120
     FM311100 32004KT P6SM VCSH SCT050 BKN080=

USA.gov is the U.S. government's official web portal to all federal, state and local government web resources and services.